Time;durP1;ratioP1;P1;durP2;ratioP2;P2;SDS_P1;SDS_P2;PMS_P1;PMS_P2;Temp;Humidity;BMP_temperature;BMP_pressure;BME280_temperature;BME280_humidity;BME280_pressure;Samples;Min_cycle;Max_cycle;Signal;HPM_P1;HPM_P2
2022/01/18 00:01:28;;;;;;;17.63;6.40;;;;;;;;;;5117793;27;24419;-60
2022/01/18 00:03:54;;;;;;;9.90;4.80;;;;;;;;;;5129362;27;25316;-59
2022/01/18 00:06:19;;;;;;;12.63;5.33;;;;;;;;;;5130335;27;25014;-58
2022/01/18 00:08:44;;;;;;;10.33;4.93;;;;;;;;;;5130501;27;25028;-59
2022/01/18 00:11:09;;;;;;;11.73;4.70;;;;;;;;;;5129034;27;24496;-60
2022/01/18 00:13:47;;;;;;;14.07;6.30;;;;;;;;;;5125167;27;24428;-60
2022/01/18 00:16:36;;;;;;;16.08;6.05;;;;;;;;;;5130459;27;24409;-58
2022/01/18 00:19:07;;;;;;;14.50;6.07;;;;;;;;;;5129247;27;24503;-58
2022/01/18 00:24:16;;;;;;;19.07;6.03;;;;;;;;;;5119968;27;24411;-58
2022/01/18 00:26:42;;;;;;;17.03;6.70;;;;;;;;;;5127940;27;24492;-58
2022/01/18 00:29:11;;;;;;;11.50;5.30;;;;;;;;;;5127409;27;24448;-59
2022/01/18 00:34:26;;;;;;;15.93;5.90;;;;;;;;;;5128481;27;24473;-59
2022/01/18 00:39:16;;;;;;;19.00;7.27;;;;;;;;;;5127146;27;24496;-58
2022/01/18 00:41:41;;;;;;;17.05;6.15;;;;;;;;;;5128898;27;24500;-58
2022/01/18 00:44:07;;;;;;;14.23;6.10;;;;;;;;;;5104407;28;24410;-58
2022/01/18 00:46:33;;;;;;;18.20;6.60;;;;;;;;;;5128707;27;24516;-58
2022/01/18 00:49:01;;;;;;;20.30;6.53;;;;;;;;;;5128846;27;24499;-59
2022/01/18 00:51:26;;;;;;;13.63;5.70;;;;;;;;;;5128241;27;24415;-58
2022/01/18 00:53:52;;;;;;;19.98;6.95;;;;;;;;;;5128014;27;24998;-58
2022/01/18 00:56:22;;;;;;;14.65;6.18;;;;;;;;;;5127629;27;24767;-60
2022/01/18 00:58:48;;;;;;;17.88;6.30;;;;;;;;;;5124370;27;24424;-59
2022/01/18 01:01:13;;;;;;;12.33;5.37;;;;;;;;;;5128286;27;24429;-59
2022/01/18 01:03:39;;;;;;;19.37;6.40;;;;;;;;;;5128122;27;25001;-60
2022/01/18 01:06:04;;;;;;;17.93;6.10;;;;;;;;;;5127973;27;24505;-59
2022/01/18 01:08:30;;;;;;;16.40;6.20;;;;;;;;;;5128204;27;24412;-59
2022/01/18 01:10:55;;;;;;;13.83;5.67;;;;;;;;;;5128295;27;25049;-60
2022/01/18 01:13:21;;;;;;;17.37;5.70;;;;;;;;;;5128395;27;24409;-59
2022/01/18 01:16:04;;;;;;;16.87;6.50;;;;;;;;;;5128544;27;24421;-59
2022/01/18 01:18:41;;;;;;;14.95;4.97;;;;;;;;;;5127489;27;24421;-59
2022/01/18 01:34:55;;;;;;;15.30;5.45;;;;;;;;;;5128369;27;24956;-58
2022/01/18 01:45:04;;;;;;;17.17;5.40;;;;;;;;;;5128003;27;24574;-58
2022/01/18 01:47:37;;;;;;;16.33;5.40;;;;;;;;;;5123368;27;25033;-58
2022/01/18 01:50:03;;;;;;;13.35;5.45;;;;;;;;;;5127225;27;24425;-60
2022/01/18 01:52:28;;;;;;;15.20;5.18;;;;;;;;;;5122316;27;24405;-58
2022/01/18 01:54:54;;;;;;;15.70;5.50;;;;;;;;;;5127738;27;24412;-59
2022/01/18 01:57:19;;;;;;;14.27;4.90;;;;;;;;;;5125138;27;24405;-59
2022/01/18 01:59:45;;;;;;;18.23;5.68;;;;;;;;;;5126522;27;24524;-58
2022/01/18 02:02:10;;;;;;;14.30;5.90;;;;;;;;;;5127583;27;24478;-58
2022/01/18 02:04:35;;;;;;;17.35;5.47;;;;;;;;;;5127878;27;24561;-57
2022/01/18 02:07:00;;;;;;;14.70;5.67;;;;;;;;;;5127746;27;24424;-58
2022/01/18 02:09:26;;;;;;;14.13;5.00;;;;;;;;;;5126960;27;24417;-58
2022/01/18 02:11:55;;;;;;;11.45;5.10;;;;;;;;;;5124771;27;24413;-59
2022/01/18 02:14:22;;;;;;;14.27;5.38;;;;;;;;;;5123816;27;24420;-59
2022/01/18 02:22:20;;;;;;;11.37;4.83;;;;;;;;;;5087753;27;25245;-59
2022/01/18 02:24:45;;;;;;;14.77;4.90;;;;;;;;;;5127537;27;24746;-59
2022/01/18 02:27:11;;;;;;;14.97;5.20;;;;;;;;;;5127409;27;24554;-59
2022/01/18 02:29:36;;;;;;;21.50;5.83;;;;;;;;;;5123917;27;24416;-59
2022/01/18 02:32:02;;;;;;;15.93;4.70;;;;;;;;;;5127654;27;24981;-59
2022/01/18 02:34:27;;;;;;;17.07;4.90;;;;;;;;;;5127434;27;24965;-59
2022/01/18 02:36:57;;;;;;;13.40;5.30;;;;;;;;;;5126707;27;24412;-59
2022/01/18 02:39:23;;;;;;;13.30;5.30;;;;;;;;;;5124147;27;24476;-59
2022/01/18 02:41:52;;;;;;;12.57;5.10;;;;;;;;;;5127399;27;24432;-59
2022/01/18 02:44:18;;;;;;;14.75;5.20;;;;;;;;;;5124418;27;24401;-59
2022/01/18 02:46:43;;;;;;;14.07;5.43;;;;;;;;;;5127625;27;24500;-59
2022/01/18 02:49:08;;;;;;;15.10;4.60;;;;;;;;;;5126942;27;24461;-59
2022/01/18 02:51:34;;;;;;;21.00;6.20;;;;;;;;;;5122303;27;24463;-58
2022/01/18 02:54:00;;;;;;;18.60;5.57;;;;;;;;;;5120895;27;24983;-59
2022/01/18 02:56:31;;;;;;;16.48;5.57;;;;;;;;;;5127070;27;25265;-59
2022/01/18 02:59:03;;;;;;;18.90;5.50;;;;;;;;;;5126931;27;24508;-59
2022/01/18 03:04:13;;;;;;;14.40;5.00;;;;;;;;;;5126556;27;24440;-59
2022/01/18 03:06:38;;;;;;;16.67;5.00;;;;;;;;;;5125949;27;24500;-59
2022/01/18 03:09:03;;;;;;;18.00;5.73;;;;;;;;;;5127506;27;24953;-59
2022/01/18 03:11:28;;;;;;;15.30;5.00;;;;;;;;;;5126490;28;24962;-59
2022/01/18 03:13:54;;;;;;;20.60;5.00;;;;;;;;;;5122378;27;24841;-59
2022/01/18 03:16:19;;;;;;;17.17;5.40;;;;;;;;;;5126738;28;24946;-59
2022/01/18 03:18:44;;;;;;;13.80;5.07;;;;;;;;;;5126955;28;24533;-59
2022/01/18 03:21:10;;;;;;;15.63;5.20;;;;;;;;;;5125031;27;24421;-59
2022/01/18 03:23:35;;;;;;;23.73;5.70;;;;;;;;;;5131262;27;24409;-59
2022/01/18 03:26:02;;;;;;;14.23;5.30;;;;;;;;;;5112841;27;24868;-59
2022/01/18 03:28:28;;;;;;;13.88;5.28;;;;;;;;;;5130308;27;24404;-58
2022/01/18 03:30:58;;;;;;;11.57;4.18;;;;;;;;;;5120936;27;24996;-59
2022/01/18 03:33:24;;;;;;;17.10;5.80;;;;;;;;;;5126213;27;24545;-60
2022/01/18 03:35:50;;;;;;;11.85;4.60;;;;;;;;;;5130466;27;24582;-59
2022/01/18 03:38:17;;;;;;;20.43;5.83;;;;;;;;;;5129470;27;25303;-59
2022/01/18 03:40:43;;;;;;;18.90;5.90;;;;;;;;;;5128127;27;24526;-59
2022/01/18 03:43:11;;;;;;;12.57;4.85;;;;;;;;;;5129284;27;25128;-59
2022/01/18 03:45:41;;;;;;;18.40;5.40;;;;;;;;;;5130595;27;24436;-59
2022/01/18 03:48:11;;;;;;;20.35;5.80;;;;;;;;;;5130588;27;24452;-59
2022/01/18 03:50:36;;;;;;;12.98;4.93;;;;;;;;;;5129089;27;24461;-58
2022/01/18 03:53:01;;;;;;;16.47;5.60;;;;;;;;;;5129979;27;25708;-59
2022/01/18 03:55:26;;;;;;;14.43;5.07;;;;;;;;;;5129374;27;24500;-59
2022/01/18 03:57:52;;;;;;;13.67;4.90;;;;;;;;;;5130372;27;24518;-59
2022/01/18 04:00:18;;;;;;;14.57;4.50;;;;;;;;;;5129710;27;25224;-58
2022/01/18 04:02:44;;;;;;;11.70;4.80;;;;;;;;;;5128087;27;24465;-58
2022/01/18 04:05:10;;;;;;;13.40;4.53;;;;;;;;;;5127947;27;24553;-58
2022/01/18 04:07:35;;;;;;;17.00;5.73;;;;;;;;;;5130273;27;24969;-57
2022/01/18 04:10:00;;;;;;;15.70;4.90;;;;;;;;;;5129840;27;24409;-60
2022/01/18 04:12:25;;;;;;;12.07;4.40;;;;;;;;;;5125982;27;24417;-59
2022/01/18 04:14:51;;;;;;;14.18;4.85;;;;;;;;;;5126202;27;24413;-59
2022/01/18 04:17:32;;;;;;;15.00;4.57;;;;;;;;;;5126487;27;24424;-59
2022/01/18 04:28:36;;;;;;;14.15;4.90;;;;;;;;;;5129113;27;24466;-57
2022/01/18 04:30:55;;;;;;;12.50;4.47;;;;;;;;;;5128778;27;24404;-58
2022/01/18 04:33:20;;;;;;;11.87;4.83;;;;;;;;;;5128719;27;24401;-57
2022/01/18 04:35:45;;;;;;;10.83;4.40;;;;;;;;;;5128138;27;24951;-57
2022/01/18 04:38:10;;;;;;;18.08;5.00;;;;;;;;;;5127560;27;24433;-57
2022/01/18 04:40:39;;;;;;;14.23;4.50;;;;;;;;;;5123140;27;25047;-58
2022/01/18 04:43:17;;;;;;;14.93;5.25;;;;;;;;;;5129048;27;21600;-58
2022/01/18 04:48:36;;;;;;;10.85;4.30;;;;;;;;;;5125377;27;24412;-57
2022/01/18 04:51:07;;;;;;;13.52;4.47;;;;;;;;;;5127365;27;24587;-58
2022/01/18 04:53:33;;;;;;;12.48;4.45;;;;;;;;;;5127578;27;24421;-58
2022/01/18 04:56:01;;;;;;;10.20;4.05;;;;;;;;;;5128644;27;24444;-58
2022/01/18 04:58:27;;;;;;;12.85;4.80;;;;;;;;;;5123838;27;24406;-58
2022/01/18 05:00:53;;;;;;;14.90;4.93;;;;;;;;;;5127342;27;24421;-58
2022/01/18 05:03:19;;;;;;;11.33;4.40;;;;;;;;;;5110230;27;24989;-58
2022/01/18 05:05:44;;;;;;;12.03;4.40;;;;;;;;;;5124943;27;24417;-58
2022/01/18 05:08:13;;;;;;;13.90;4.60;;;;;;;;;;5128456;27;24491;-58
2022/01/18 05:10:39;;;;;;;18.27;5.70;;;;;;;;;;5123248;27;24431;-58
2022/01/18 05:13:14;;;;;;;12.87;4.60;;;;;;;;;;5126682;27;24416;-58
2022/01/18 05:15:50;;;;;;;16.92;5.10;;;;;;;;;;5128436;27;24410;-58
2022/01/18 05:23:33;;;;;;;13.88;4.85;;;;;;;;;;5124744;27;25366;-57
2022/01/18 05:25:58;;;;;;;15.20;4.78;;;;;;;;;;5119641;27;24413;-57
2022/01/18 05:28:23;;;;;;;15.57;4.85;;;;;;;;;;5126819;27;25176;-58
2022/01/18 05:30:49;;;;;;;15.25;4.80;;;;;;;;;;5124854;27;24478;-58
2022/01/18 05:33:14;;;;;;;16.45;5.25;;;;;;;;;;5116922;27;24413;-58
2022/01/18 05:35:39;;;;;;;14.30;5.10;;;;;;;;;;5116256;27;24436;-57
2022/01/18 05:38:08;;;;;;;15.30;4.90;;;;;;;;;;5119939;27;24513;-57
2022/01/18 05:40:33;;;;;;;12.75;4.18;;;;;;;;;;5123555;27;24465;-57
2022/01/18 05:42:58;;;;;;;12.70;4.60;;;;;;;;;;5123667;27;24612;-58
2022/01/18 05:45:23;;;;;;;14.15;4.68;;;;;;;;;;5123572;27;24495;-57
2022/01/18 05:47:48;;;;;;;14.70;4.00;;;;;;;;;;5125447;27;24534;-57
2022/01/18 05:50:14;;;;;;;11.18;4.30;;;;;;;;;;5122814;27;24479;-58
2022/01/18 05:52:40;;;;;;;18.25;5.10;;;;;;;;;;5120750;27;24957;-58
2022/01/18 05:55:06;;;;;;;10.75;4.60;;;;;;;;;;5120548;27;24455;-59
2022/01/18 05:57:31;;;;;;;14.10;5.30;;;;;;;;;;5123856;27;25090;-59
2022/01/18 06:00:05;;;;;;;16.90;5.27;;;;;;;;;;5114518;27;24528;-58
2022/01/18 06:02:59;;;;;;;13.75;4.60;;;;;;;;;;5118288;27;25001;-59
2022/01/18 06:08:09;;;;;;;14.80;4.47;;;;;;;;;;5124710;27;24412;-58
2022/01/18 06:10:35;;;;;;;12.52;4.45;;;;;;;;;;5124808;27;24500;-57
2022/01/18 06:13:02;;;;;;;13.32;4.70;;;;;;;;;;5123901;27;24421;-58
2022/01/18 06:15:27;;;;;;;14.18;4.55;;;;;;;;;;5120085;27;24421;-58
2022/01/18 06:17:52;;;;;;;13.20;4.43;;;;;;;;;;5124048;27;24428;-58
2022/01/18 06:20:17;;;;;;;11.82;4.30;;;;;;;;;;5124322;27;24432;-58
2022/01/18 06:22:43;;;;;;;9.70;3.90;;;;;;;;;;5119025;27;25123;-58
2022/01/18 06:25:08;;;;;;;8.27;3.60;;;;;;;;;;5118447;27;24418;-58
2022/01/18 06:27:34;;;;;;;12.05;4.10;;;;;;;;;;5124977;27;24428;-58
2022/01/18 06:29:59;;;;;;;9.97;3.60;;;;;;;;;;5110891;27;24830;-58
2022/01/18 06:32:24;;;;;;;10.53;4.00;;;;;;;;;;5122346;27;24503;-58
2022/01/18 06:34:49;;;;;;;11.43;4.00;;;;;;;;;;5126562;27;24417;-57
2022/01/18 06:37:14;;;;;;;9.43;3.30;;;;;;;;;;5123608;27;25064;-58
2022/01/18 06:39:40;;;;;;;13.52;4.30;;;;;;;;;;5126844;27;24425;-58
2022/01/18 06:42:05;;;;;;;12.93;4.30;;;;;;;;;;5126651;27;24539;-58
2022/01/18 06:44:30;;;;;;;13.57;4.13;;;;;;;;;;5126672;27;24389;-58
2022/01/18 06:46:55;;;;;;;9.13;3.17;;;;;;;;;;5126305;27;24405;-58
2022/01/18 06:49:21;;;;;;;11.40;3.97;;;;;;;;;;5126603;27;24417;-58
2022/01/18 06:51:46;;;;;;;9.50;3.77;;;;;;;;;;5125406;27;24782;-58
2022/01/18 06:54:15;;;;;;;14.13;4.70;;;;;;;;;;5126648;27;24476;-58
2022/01/18 06:56:44;;;;;;;8.65;3.55;;;;;;;;;;5125691;27;24390;-58
2022/01/18 06:59:09;;;;;;;10.63;3.65;;;;;;;;;;5126046;27;24831;-58
2022/01/18 07:01:34;;;;;;;11.87;3.50;;;;;;;;;;5126542;27;24513;-58
2022/01/18 07:03:59;;;;;;;9.00;3.80;;;;;;;;;;5124116;27;24476;-57
2022/01/18 07:06:24;;;;;;;10.32;3.80;;;;;;;;;;5124708;27;24488;-58
2022/01/18 07:08:50;;;;;;;9.57;3.50;;;;;;;;;;5125884;27;24486;-57
2022/01/18 07:11:16;;;;;;;7.78;3.50;;;;;;;;;;5126642;27;24413;-58
2022/01/18 07:13:42;;;;;;;8.25;3.53;;;;;;;;;;5126355;28;24700;-57
2022/01/18 07:16:07;;;;;;;8.40;3.60;;;;;;;;;;5126602;28;24942;-57
2022/01/18 07:18:32;;;;;;;11.03;3.77;;;;;;;;;;5126090;28;24409;-57
2022/01/18 07:20:57;;;;;;;11.10;3.33;;;;;;;;;;5125569;28;24459;-57
2022/01/18 07:23:22;;;;;;;8.13;3.20;;;;;;;;;;5124904;28;24825;-57
2022/01/18 07:25:48;;;;;;;12.10;3.90;;;;;;;;;;5126644;28;24406;-57
2022/01/18 07:28:15;;;;;;;7.87;3.60;;;;;;;;;;5126760;28;24401;-58
2022/01/18 07:30:41;;;;;;;10.43;4.63;;;;;;;;;;5119741;28;24566;-57
2022/01/18 07:33:06;;;;;;;13.52;3.95;;;;;;;;;;5117282;28;24551;-51
2022/01/18 07:35:33;;;;;;;10.17;4.10;;;;;;;;;;5110069;28;24406;-52
2022/01/18 07:38:00;;;;;;;8.20;3.55;;;;;;;;;;5111766;28;25055;-52
2022/01/18 07:40:25;;;;;;;9.70;3.67;;;;;;;;;;5114783;28;24467;-52
2022/01/18 07:42:50;;;;;;;13.63;4.47;;;;;;;;;;5115225;28;24405;-58
2022/01/18 07:45:15;;;;;;;10.18;3.70;;;;;;;;;;5121543;28;24620;-60
2022/01/18 07:47:41;;;;;;;10.33;4.30;;;;;;;;;;5116187;28;24950;-58
2022/01/18 07:50:06;;;;;;;12.83;4.10;;;;;;;;;;5126563;28;24420;-58
2022/01/18 07:52:35;;;;;;;10.87;4.20;;;;;;;;;;5125764;28;24475;-58
2022/01/18 07:55:00;;;;;;;12.63;4.50;;;;;;;;;;5125533;28;24579;-58
2022/01/18 07:57:25;;;;;;;10.45;3.50;;;;;;;;;;5126722;28;24447;-57
2022/01/18 07:59:51;;;;;;;9.63;4.10;;;;;;;;;;5125582;27;24428;-58
2022/01/18 08:02:16;;;;;;;10.40;3.60;;;;;;;;;;5113070;28;24420;-58
2022/01/18 08:04:41;;;;;;;12.75;4.30;;;;;;;;;;5116573;28;24866;-58
2022/01/18 08:07:07;;;;;;;8.30;3.00;;;;;;;;;;5123748;27;24464;-58
2022/01/18 08:09:32;;;;;;;12.32;4.10;;;;;;;;;;5129529;27;24416;-57
2022/01/18 08:11:57;;;;;;;11.20;4.40;;;;;;;;;;5130112;27;24729;-58
2022/01/18 08:14:24;;;;;;;12.30;4.55;;;;;;;;;;5127565;27;24389;-57
2022/01/18 08:17:00;;;;;;;9.60;3.80;;;;;;;;;;5128950;27;24428;-57
2022/01/18 08:19:25;;;;;;;10.85;3.70;;;;;;;;;;5129489;27;24459;-56
2022/01/18 08:21:50;;;;;;;11.33;4.23;;;;;;;;;;5129274;27;25356;-57
2022/01/18 08:24:15;;;;;;;11.27;3.92;;;;;;;;;;5129440;27;24396;-58
2022/01/18 08:26:40;;;;;;;8.82;3.53;;;;;;;;;;5129333;27;24420;-58
2022/01/18 08:29:06;;;;;;;8.63;3.70;;;;;;;;;;5129591;27;24417;-58
2022/01/18 08:31:31;;;;;;;11.83;4.23;;;;;;;;;;5129134;27;24497;-59
2022/01/18 08:33:56;;;;;;;8.63;3.70;;;;;;;;;;5129111;27;24426;-58
2022/01/18 08:36:21;;;;;;;8.57;3.60;;;;;;;;;;5129035;27;24397;-59
2022/01/18 08:38:47;;;;;;;11.40;3.83;;;;;;;;;;5129311;27;24424;-59
2022/01/18 08:41:12;;;;;;;11.38;4.13;;;;;;;;;;5128907;27;24421;-58
2022/01/18 08:43:38;;;;;;;9.35;3.30;;;;;;;;;;5128714;27;24957;-59
2022/01/18 08:46:03;;;;;;;10.55;3.42;;;;;;;;;;5128875;27;24450;-58
2022/01/18 08:48:29;;;;;;;8.98;3.85;;;;;;;;;;5128444;27;24444;-58
2022/01/18 08:50:54;;;;;;;8.68;3.50;;;;;;;;;;5128257;27;24429;-58
2022/01/18 08:53:20;;;;;;;10.97;3.93;;;;;;;;;;5129111;27;24501;-58
2022/01/18 08:55:45;;;;;;;11.53;3.67;;;;;;;;;;5127865;27;24415;-59
2022/01/18 08:58:10;;;;;;;10.90;3.20;;;;;;;;;;5128609;27;25011;-58
2022/01/18 09:00:35;;;;;;;12.60;3.40;;;;;;;;;;5128166;27;24454;-58
2022/01/18 09:03:01;;;;;;;8.10;3.40;;;;;;;;;;5128935;27;24836;-58
2022/01/18 09:05:26;;;;;;;14.57;4.70;;;;;;;;;;5128558;27;24411;-58
2022/01/18 09:07:52;;;;;;;11.70;4.07;;;;;;;;;;5128263;27;24448;-59
2022/01/18 09:10:18;;;;;;;10.77;3.57;;;;;;;;;;5129105;27;25116;-59
2022/01/18 09:12:43;;;;;;;7.97;3.40;;;;;;;;;;5127744;27;24462;-58
2022/01/18 09:15:09;;;;;;;7.10;3.30;;;;;;;;;;5128329;27;24496;-59
2022/01/18 09:17:35;;;;;;;13.68;4.20;;;;;;;;;;5128616;27;24396;-59
2022/01/18 09:20:05;;;;;;;8.52;3.72;;;;;;;;;;5126801;27;24436;-59
2022/01/18 09:22:31;;;;;;;9.87;3.50;;;;;;;;;;5126633;27;24476;-59
2022/01/18 09:24:56;;;;;;;9.43;3.90;;;;;;;;;;5128221;27;24773;-59
2022/01/18 09:27:21;;;;;;;7.82;3.53;;;;;;;;;;5127915;27;24412;-59
2022/01/18 09:29:46;;;;;;;9.77;3.67;;;;;;;;;;5127794;27;24531;-59
2022/01/18 09:32:12;;;;;;;11.60;3.73;;;;;;;;;;5127775;27;24424;-57
2022/01/18 09:34:37;;;;;;;10.03;4.00;;;;;;;;;;5127613;27;24550;-57
2022/01/18 09:37:02;;;;;;;13.75;3.90;;;;;;;;;;5125992;27;24873;-57
2022/01/18 09:39:27;;;;;;;11.27;4.27;;;;;;;;;;5127668;27;24413;-57
2022/01/18 09:41:54;;;;;;;7.60;3.30;;;;;;;;;;5127333;27;24404;-58
2022/01/18 09:44:19;;;;;;;10.02;3.90;;;;;;;;;;5128118;27;24975;-58
2022/01/18 09:46:45;;;;;;;9.57;4.20;;;;;;;;;;5127624;27;24435;-58
2022/01/18 09:49:10;;;;;;;10.33;4.20;;;;;;;;;;5128104;27;24481;-58
2022/01/18 09:51:35;;;;;;;11.03;4.20;;;;;;;;;;5127709;27;24417;-58
2022/01/18 09:54:00;;;;;;;10.10;4.10;;;;;;;;;;5127763;27;24420;-58
2022/01/18 09:56:26;;;;;;;10.10;4.40;;;;;;;;;;5125590;27;24930;-58
2022/01/18 09:58:51;;;;;;;10.45;4.35;;;;;;;;;;5127492;27;24400;-58
2022/01/18 10:01:16;;;;;;;9.60;4.23;;;;;;;;;;5127460;27;24429;-58
2022/01/18 10:03:41;;;;;;;11.20;4.40;;;;;;;;;;5127220;27;24423;-59
2022/01/18 10:06:08;;;;;;;8.60;3.73;;;;;;;;;;5127714;27;25106;-58
2022/01/18 10:08:34;;;;;;;9.32;3.95;;;;;;;;;;5127699;27;24950;-58
2022/01/18 10:11:02;;;;;;;10.73;4.50;;;;;;;;;;5126997;27;24435;-58
2022/01/18 10:13:31;;;;;;;10.73;5.10;;;;;;;;;;5126895;27;24411;-58
2022/01/18 10:15:57;;;;;;;10.10;4.68;;;;;;;;;;5127223;27;24771;-58
2022/01/18 10:18:30;;;;;;;10.10;4.95;;;;;;;;;;5127377;27;24742;-58
2022/01/18 10:20:57;;;;;;;8.48;4.63;;;;;;;;;;5126884;27;24467;-57
2022/01/18 10:23:23;;;;;;;10.50;4.93;;;;;;;;;;5126862;27;24424;-58
2022/01/18 10:25:48;;;;;;;7.47;4.77;;;;;;;;;;5127049;27;24713;-58
2022/01/18 10:28:26;;;;;;;9.53;4.37;;;;;;;;;;5127173;27;24407;-58
2022/01/18 10:30:52;;;;;;;7.95;4.40;;;;;;;;;;5126926;27;24453;-57
2022/01/18 10:33:21;;;;;;;10.93;4.40;;;;;;;;;;5127338;27;25019;-57
2022/01/18 10:36:05;;;;;;;12.88;4.85;;;;;;;;;;5126368;27;24409;-58
2022/01/18 10:38:30;;;;;;;11.20;4.80;;;;;;;;;;5126640;27;24994;-57
2022/01/18 10:40:55;;;;;;;7.95;3.88;;;;;;;;;;5126789;27;24436;-57
2022/01/18 10:43:28;;;;;;;10.40;5.05;;;;;;;;;;5126858;27;24417;-57
2022/01/18 10:46:10;;;;;;;9.57;4.25;;;;;;;;;;5126380;27;24412;-58
2022/01/18 10:48:44;;;;;;;9.68;4.40;;;;;;;;;;5126793;27;24506;-58
2022/01/18 10:51:24;;;;;;;9.95;3.88;;;;;;;;;;5126660;27;24428;-58
2022/01/18 10:53:59;;;;;;;9.23;4.20;;;;;;;;;;5126320;27;24427;-58
2022/01/18 10:56:25;;;;;;;11.10;4.57;;;;;;;;;;5124606;27;24417;-58
2022/01/18 10:58:52;;;;;;;7.73;3.70;;;;;;;;;;5124749;27;24404;-58
2022/01/18 11:01:19;;;;;;;10.25;4.57;;;;;;;;;;5126831;27;24405;-58
2022/01/18 11:04:03;;;;;;;6.75;4.00;;;;;;;;;;5126312;27;24899;-58
2022/01/18 11:06:29;;;;;;;6.55;4.20;;;;;;;;;;5113524;27;24428;-58
2022/01/18 11:08:54;;;;;;;8.50;4.35;;;;;;;;;;5126335;27;24553;-58
2022/01/18 11:11:25;;;;;;;9.40;4.53;;;;;;;;;;5126549;27;24958;-58
2022/01/18 11:13:51;;;;;;;8.15;3.90;;;;;;;;;;5126637;27;24432;-58
2022/01/18 11:16:25;;;;;;;9.80;3.97;;;;;;;;;;5126282;28;24828;-58
2022/01/18 11:18:50;;;;;;;4.95;3.65;;;;;;;;;;5126560;28;24756;-58
2022/01/18 11:21:19;;;;;;;8.73;3.90;;;;;;;;;;5124231;28;24429;-58
2022/01/18 11:23:44;;;;;;;6.85;3.50;;;;;;;;;;5126346;28;24409;-58
2022/01/18 11:26:10;;;;;;;5.30;3.70;;;;;;;;;;5125811;28;24784;-58
2022/01/18 11:28:37;;;;;;;5.15;3.10;;;;;;;;;;5126685;28;24389;-58
2022/01/18 11:31:02;;;;;;;6.87;3.33;;;;;;;;;;5126029;28;24994;-58
2022/01/18 11:33:28;;;;;;;6.67;3.30;;;;;;;;;;5126259;28;24507;-58
2022/01/18 11:35:58;;;;;;;5.80;2.95;;;;;;;;;;5126244;28;24516;-58
2022/01/18 11:38:23;;;;;;;4.72;2.90;;;;;;;;;;5126132;28;24516;-57
2022/01/18 11:40:51;;;;;;;5.10;2.90;;;;;;;;;;5126248;28;24637;-58
2022/01/18 11:43:37;;;;;;;6.10;2.93;;;;;;;;;;5128374;27;24763;-58
2022/01/18 11:46:19;;;;;;;5.15;3.00;;;;;;;;;;5129770;27;24434;-59
2022/01/18 11:48:45;;;;;;;6.70;2.78;;;;;;;;;;5130639;27;24401;-58
2022/01/18 11:51:16;;;;;;;5.80;2.80;;;;;;;;;;5130442;27;24396;-58
2022/01/18 11:53:55;;;;;;;6.90;3.60;;;;;;;;;;5129667;27;24525;-59
2022/01/18 11:56:34;;;;;;;6.68;3.20;;;;;;;;;;5130347;27;24416;-58
2022/01/18 11:59:18;;;;;;;4.70;3.30;;;;;;;;;;5130131;27;24393;-58
2022/01/18 12:01:50;;;;;;;4.68;2.70;;;;;;;;;;5129815;27;24425;-58
2022/01/18 12:04:35;;;;;;;3.80;3.08;;;;;;;;;;5129392;27;24440;-58
2022/01/18 12:07:00;;;;;;;5.97;3.53;;;;;;;;;;5129794;27;24388;-58
2022/01/18 12:09:41;;;;;;;6.18;3.18;;;;;;;;;;5129959;27;24935;-58
2022/01/18 12:12:26;;;;;;;11.35;3.40;;;;;;;;;;5129632;27;24392;-57
2022/01/18 12:14:51;;;;;;;7.13;3.50;;;;;;;;;;5129179;27;24516;-58
2022/01/18 12:17:16;;;;;;;6.33;3.17;;;;;;;;;;5129948;27;25030;-58
2022/01/18 12:19:47;;;;;;;5.27;3.47;;;;;;;;;;5129722;27;24384;-59
2022/01/18 12:22:12;;;;;;;4.95;2.95;;;;;;;;;;5129570;27;24979;-58
2022/01/18 12:24:40;;;;;;;6.55;3.22;;;;;;;;;;5128847;27;24438;-58
2022/01/18 12:27:24;;;;;;;6.32;3.50;;;;;;;;;;5129357;27;24438;-58
2022/01/18 12:30:14;;;;;;;6.18;2.95;;;;;;;;;;5129761;27;24800;-58
2022/01/18 12:32:56;;;;;;;4.72;3.15;;;;;;;;;;5129568;27;24456;-58
2022/01/18 12:35:23;;;;;;;5.57;3.20;;;;;;;;;;5129097;27;24404;-59
2022/01/18 12:37:48;;;;;;;6.65;3.40;;;;;;;;;;5125643;27;24443;-59
2022/01/18 12:40:26;;;;;;;7.87;3.70;;;;;;;;;;5129361;27;24435;-58
2022/01/18 12:45:24;;;;;;;6.97;3.35;;;;;;;;;;5128772;27;24559;-58
2022/01/18 12:47:55;;;;;;;6.07;3.13;;;;;;;;;;5128750;27;24493;-58
2022/01/18 12:50:25;;;;;;;7.45;3.38;;;;;;;;;;5128989;27;24442;-59
2022/01/18 12:52:52;;;;;;;6.63;3.55;;;;;;;;;;5129160;27;24397;-59
2022/01/18 12:55:24;;;;;;;6.07;3.13;;;;;;;;;;5128245;27;24409;-57
2022/01/18 12:58:03;;;;;;;6.45;2.90;;;;;;;;;;5128762;27;25280;-58
2022/01/18 13:00:28;;;;;;;7.25;3.40;;;;;;;;;;5128496;27;24436;-57
2022/01/18 13:02:58;;;;;;;6.70;3.20;;;;;;;;;;5129032;27;24398;-58
2022/01/18 13:05:32;;;;;;;4.57;3.30;;;;;;;;;;5128857;27;24531;-57
2022/01/18 13:07:57;;;;;;;4.93;3.00;;;;;;;;;;5128290;27;24642;-57
2022/01/18 13:10:35;;;;;;;5.97;3.42;;;;;;;;;;5127617;27;24512;-58
2022/01/18 13:13:00;;;;;;;7.97;3.60;;;;;;;;;;5128440;27;24457;-58
2022/01/18 13:15:47;;;;;;;4.40;2.90;;;;;;;;;;5128936;27;24389;-57
2022/01/18 13:22:57;;;;;;;6.73;3.17;;;;;;;;;;5128414;27;24985;-58
2022/01/18 13:26:43;;;;;;;4.13;2.70;;;;;;;;;;5076243;27;24788;-58
2022/01/18 13:29:29;;;;;;;6.00;2.90;;;;;;;;;;5127872;27;24570;-58
2022/01/18 13:32:09;;;;;;;4.38;3.00;;;;;;;;;;5128562;27;24431;-58
2022/01/18 13:34:39;;;;;;;6.55;2.80;;;;;;;;;;5127157;27;24513;-59
2022/01/18 13:37:07;;;;;;;4.25;2.97;;;;;;;;;;5122026;27;25039;-58
2022/01/18 13:39:37;;;;;;;5.35;2.78;;;;;;;;;;5123737;27;24485;-58
2022/01/18 13:42:03;;;;;;;4.72;2.80;;;;;;;;;;5116023;27;25010;-58
2022/01/18 13:44:28;;;;;;;7.57;3.17;;;;;;;;;;5125450;27;24981;-58
2022/01/18 13:46:53;;;;;;;3.95;2.42;;;;;;;;;;5125382;27;24462;-57
2022/01/18 13:49:22;;;;;;;8.13;2.53;;;;;;;;;;5124104;27;24409;-58
2022/01/18 13:52:00;;;;;;;4.97;2.50;;;;;;;;;;5123357;27;24457;-58
2022/01/18 13:54:28;;;;;;;5.75;2.53;;;;;;;;;;5127007;27;24497;-58
2022/01/18 13:56:53;;;;;;;4.10;2.93;;;;;;;;;;5127951;27;24726;-58
2022/01/18 13:59:24;;;;;;;3.40;2.40;;;;;;;;;;5127301;27;24787;-58
2022/01/18 14:01:49;;;;;;;6.40;2.50;;;;;;;;;;5127999;27;24520;-59
2022/01/18 14:04:19;;;;;;;3.10;2.20;;;;;;;;;;5127890;27;24873;-57
2022/01/18 14:06:45;;;;;;;4.10;2.38;;;;;;;;;;5126900;27;24508;-58
2022/01/18 14:09:12;;;;;;;4.72;2.60;;;;;;;;;;5127499;27;24767;-58
2022/01/18 14:11:37;;;;;;;4.22;2.60;;;;;;;;;;5127167;27;24413;-58
2022/01/18 14:14:29;;;;;;;5.03;2.70;;;;;;;;;;5127348;27;24397;-58
2022/01/18 14:16:58;;;;;;;3.50;2.20;;;;;;;;;;5122351;27;24428;-59
2022/01/18 14:19:27;;;;;;;5.45;2.47;;;;;;;;;;5126690;27;24748;-58
2022/01/18 14:21:54;;;;;;;3.83;2.30;;;;;;;;;;5126017;27;24783;-57
2022/01/18 14:24:39;;;;;;;4.35;2.30;;;;;;;;;;5126483;27;24413;-58
2022/01/18 14:27:15;;;;;;;3.80;2.80;;;;;;;;;;5126814;27;24963;-57
2022/01/18 14:29:40;;;;;;;4.88;2.75;;;;;;;;;;5122889;27;24588;-58
2022/01/18 14:32:13;;;;;;;3.67;2.78;;;;;;;;;;5125959;27;24517;-58
2022/01/18 14:34:39;;;;;;;4.22;2.40;;;;;;;;;;5123548;27;24832;-57
2022/01/18 14:37:04;;;;;;;3.17;2.47;;;;;;;;;;5124384;27;24482;-58
2022/01/18 14:39:30;;;;;;;5.60;3.20;;;;;;;;;;5126019;27;24968;-58
2022/01/18 14:41:56;;;;;;;4.40;2.90;;;;;;;;;;5125344;27;24425;-57
2022/01/18 14:44:35;;;;;;;6.88;2.65;;;;;;;;;;5125436;27;24462;-58
2022/01/18 14:49:44;;;;;;;3.50;2.30;;;;;;;;;;5124749;27;24810;-57
2022/01/18 14:52:09;;;;;;;3.40;2.20;;;;;;;;;;5125826;27;24943;-58
2022/01/18 14:54:34;;;;;;;4.90;2.60;;;;;;;;;;5125955;27;24413;-58
2022/01/18 14:57:00;;;;;;;3.95;2.70;;;;;;;;;;5125180;27;24435;-57
2022/01/18 14:59:25;;;;;;;5.13;2.57;;;;;;;;;;5126834;27;24447;-58
2022/01/18 15:01:52;;;;;;;4.28;2.30;;;;;;;;;;5120553;27;24425;-58
2022/01/18 15:04:17;;;;;;;4.20;2.40;;;;;;;;;;5120500;27;25223;-58
2022/01/18 15:06:42;;;;;;;4.77;2.70;;;;;;;;;;5126002;27;24432;-58
2022/01/18 15:09:07;;;;;;;4.40;2.90;;;;;;;;;;5126814;27;24386;-58
2022/01/18 15:11:36;;;;;;;4.45;3.08;;;;;;;;;;5126446;27;24420;-58
2022/01/18 15:14:01;;;;;;;3.28;2.80;;;;;;;;;;5125846;28;24462;-58
2022/01/18 15:16:27;;;;;;;3.03;2.50;;;;;;;;;;5126171;27;24772;-58
2022/01/18 15:18:53;;;;;;;3.75;2.95;;;;;;;;;;5124272;28;25023;-58
2022/01/18 15:21:18;;;;;;;3.53;2.58;;;;;;;;;;5120230;28;24479;-59
2022/01/18 15:23:43;;;;;;;3.10;2.60;;;;;;;;;;5112825;28;24949;-58
2022/01/18 15:26:08;;;;;;;2.72;2.30;;;;;;;;;;5112274;28;24398;-58
2022/01/18 15:28:33;;;;;;;4.03;2.70;;;;;;;;;;5121856;28;24413;-58
2022/01/18 15:30:58;;;;;;;5.57;3.07;;;;;;;;;;5125703;28;24860;-58
2022/01/18 15:33:24;;;;;;;3.00;2.80;;;;;;;;;;5126688;28;24830;-58
2022/01/18 15:35:49;;;;;;;4.30;3.10;;;;;;;;;;5125525;28;24514;-58
2022/01/18 15:38:15;;;;;;;4.30;3.00;;;;;;;;;;5125633;28;25269;-58
2022/01/18 15:40:40;;;;;;;3.23;2.50;;;;;;;;;;5125891;28;24508;-59
2022/01/18 15:43:05;;;;;;;3.83;3.00;;;;;;;;;;5116833;28;24471;-59
2022/01/18 15:45:30;;;;;;;5.33;3.57;;;;;;;;;;5123803;28;24420;-60
2022/01/18 15:47:56;;;;;;;4.65;3.50;;;;;;;;;;5121874;28;24958;-59